Time;durP1;ratioP1;P1;durP2;ratioP2;P2;SDS_P1;SDS_P2;PMS_P1;PMS_P2;Temp;Humidity;BMP_temperature;BMP_pressure;BME280_temperature;BME280_humidity;BME280_pressure;Samples;Min_cycle;Max_cycle;Signal;HPM_P1;HPM_P2
2021/06/12 00:01:14;;;;;;;2.60;2.38;;;;;;;;;;5068885;28;20044;-71
2021/06/12 00:03:40;;;;;;;3.33;3.03;;;;;;;;;;5069244;28;20160;-71
2021/06/12 00:06:06;;;;;;;4.78;2.75;;;;;;;;;;5068978;28;20051;-71
2021/06/12 00:08:33;;;;;;;3.13;2.75;;;;;;;;;;5069318;28;20056;-71
2021/06/12 00:11:02;;;;;;;2.50;2.30;;;;;;;;;;5068931;28;20056;-71
2021/06/12 00:13:29;;;;;;;2.63;2.42;;;;;;;;;;5069107;28;20049;-71
2021/06/12 00:15:55;;;;;;;2.88;2.63;;;;;;;;;;5050934;28;20083;-71
2021/06/12 00:18:22;;;;;;;3.47;3.17;;;;;;;;;;5069384;28;20131;-71
2021/06/12 00:20:48;;;;;;;2.95;2.75;;;;;;;;;;5069406;28;20059;-71
2021/06/12 00:23:14;;;;;;;2.92;2.72;;;;;;;;;;5068586;28;20095;-71
2021/06/12 00:25:40;;;;;;;4.10;2.95;;;;;;;;;;5069521;28;20080;-71
2021/06/12 00:28:07;;;;;;;3.15;2.95;;;;;;;;;;5068423;28;20048;-71
2021/06/12 00:30:33;;;;;;;2.40;2.20;;;;;;;;;;5068878;28;20052;-71
2021/06/12 00:32:59;;;;;;;3.67;2.25;;;;;;;;;;5068232;28;20418;-71
2021/06/12 00:35:26;;;;;;;2.85;2.67;;;;;;;;;;5068884;28;20053;-71
2021/06/12 00:37:52;;;;;;;3.40;3.10;;;;;;;;;;5068593;28;20040;-71
2021/06/12 00:40:20;;;;;;;2.88;2.60;;;;;;;;;;5069148;28;20075;-71
2021/06/12 00:42:46;;;;;;;3.17;2.97;;;;;;;;;;5068952;28;20095;-71
2021/06/12 00:45:18;;;;;;;3.38;3.08;;;;;;;;;;5068837;28;20053;-71
2021/06/12 00:47:45;;;;;;;2.53;2.33;;;;;;;;;;5069217;28;20438;-71
2021/06/12 00:50:12;;;;;;;3.63;3.33;;;;;;;;;;5068559;28;20133;-71
2021/06/12 00:52:38;;;;;;;2.92;2.65;;;;;;;;;;5069190;28;20049;-71
2021/06/12 00:55:08;;;;;;;3.20;3.00;;;;;;;;;;5068474;28;20124;-71
2021/06/12 00:57:35;;;;;;;3.22;2.88;;;;;;;;;;5069417;28;20530;-71
2021/06/12 01:00:01;;;;;;;3.45;3.20;;;;;;;;;;5068440;28;20052;-71
2021/06/12 01:02:28;;;;;;;2.72;2.58;;;;;;;;;;5068621;28;20057;-71
2021/06/12 01:04:54;;;;;;;2.65;2.47;;;;;;;;;;5068404;28;20052;-71
2021/06/12 01:07:20;;;;;;;2.80;2.60;;;;;;;;;;5068658;28;20045;-71
2021/06/12 01:09:46;;;;;;;3.28;3.08;;;;;;;;;;5069228;28;20091;-71
2021/06/12 01:12:25;;;;;;;4.03;3.20;;;;;;;;;;5068010;28;20056;-71
2021/06/12 01:14:54;;;;;;;3.15;2.70;;;;;;;;;;5067456;28;20044;-71
2021/06/12 01:17:34;;;;;;;2.95;2.75;;;;;;;;;;5068220;28;20102;-71
2021/06/12 01:20:15;;;;;;;3.80;3.33;;;;;;;;;;5068386;28;20060;-71
2021/06/12 01:23:01;;;;;;;3.45;3.15;;;;;;;;;;5067965;28;20063;-71
2021/06/12 01:25:31;;;;;;;3.25;3.05;;;;;;;;;;5068414;28;20414;-71
2021/06/12 01:28:17;;;;;;;2.97;2.78;;;;;;;;;;5068301;28;20053;-71
2021/06/12 01:30:44;;;;;;;3.85;3.30;;;;;;;;;;5071286;28;20059;-71
2021/06/12 01:33:12;;;;;;;2.60;2.40;;;;;;;;;;5071291;28;20353;-71
2021/06/12 01:35:41;;;;;;;3.75;3.45;;;;;;;;;;5072545;28;20049;-71
2021/06/12 01:38:10;;;;;;;3.70;3.40;;;;;;;;;;5071508;28;20183;-71
2021/06/12 01:40:38;;;;;;;3.30;3.00;;;;;;;;;;5072667;28;20048;-71
2021/06/12 01:43:06;;;;;;;3.50;3.25;;;;;;;;;;5069691;28;20059;-71
2021/06/12 01:45:32;;;;;;;4.55;3.30;;;;;;;;;;5072244;28;20074;-71
2021/06/12 01:47:59;;;;;;;3.13;2.92;;;;;;;;;;5071205;28;20076;-71
2021/06/12 01:50:26;;;;;;;3.67;3.38;;;;;;;;;;5072050;28;20090;-71
2021/06/12 01:52:52;;;;;;;3.15;2.85;;;;;;;;;;5071125;28;20045;-71
2021/06/12 01:55:21;;;;;;;3.08;2.88;;;;;;;;;;5071852;28;20531;-71
2021/06/12 01:57:48;;;;;;;3.05;2.85;;;;;;;;;;5071950;28;20578;-71
2021/06/12 02:00:15;;;;;;;3.08;2.78;;;;;;;;;;5071273;28;20135;-71
2021/06/12 02:02:41;;;;;;;16.17;3.88;;;;;;;;;;5071435;28;20044;-71
2021/06/12 02:05:09;;;;;;;5.55;3.42;;;;;;;;;;5071056;28;20052;-71
2021/06/12 02:07:36;;;;;;;3.25;3.05;;;;;;;;;;5071761;28;20079;-71
2021/06/12 02:10:02;;;;;;;2.53;2.33;;;;;;;;;;5071173;28;20057;-71
2021/06/12 02:12:29;;;;;;;5.03;3.60;;;;;;;;;;5071489;28;20041;-71
2021/06/12 02:14:57;;;;;;;3.92;3.38;;;;;;;;;;5070942;28;20051;-71
2021/06/12 02:17:23;;;;;;;3.50;3.00;;;;;;;;;;5071502;28;20044;-71
2021/06/12 02:19:49;;;;;;;2.88;2.67;;;;;;;;;;5071321;28;20106;-71
2021/06/12 02:22:16;;;;;;;3.25;3.00;;;;;;;;;;5070797;28;20037;-71
2021/06/12 02:24:42;;;;;;;3.20;2.95;;;;;;;;;;5071403;28;20112;-71
2021/06/12 02:27:08;;;;;;;4.38;3.05;;;;;;;;;;5070671;28;20048;-71
2021/06/12 02:29:35;;;;;;;3.50;2.88;;;;;;;;;;5070994;28;20040;-71
2021/06/12 02:32:02;;;;;;;3.58;3.35;;;;;;;;;;5070304;28;20048;-71
2021/06/12 02:34:29;;;;;;;6.38;3.20;;;;;;;;;;5071016;28;20166;-71
2021/06/12 02:36:55;;;;;;;3.50;3.25;;;;;;;;;;5070747;28;20096;-71
2021/06/12 02:39:22;;;;;;;4.53;4.13;;;;;;;;;;5071002;28;20071;-71
2021/06/12 02:41:48;;;;;;;4.28;3.88;;;;;;;;;;5070184;28;20047;-71
2021/06/12 02:44:14;;;;;;;3.22;2.92;;;;;;;;;;5070414;28;20558;-71
2021/06/12 02:46:41;;;;;;;3.45;3.10;;;;;;;;;;5071250;28;20097;-71
2021/06/12 02:49:09;;;;;;;3.08;2.85;;;;;;;;;;5070233;28;20052;-71
2021/06/12 02:51:36;;;;;;;5.13;3.35;;;;;;;;;;5071040;28;20054;-71
2021/06/12 02:54:03;;;;;;;3.63;3.33;;;;;;;;;;5069731;28;20493;-71
2021/06/12 02:56:31;;;;;;;4.47;4.07;;;;;;;;;;5070963;28;20414;-71
2021/06/12 02:59:00;;;;;;;3.22;2.92;;;;;;;;;;5069944;28;20052;-71
2021/06/12 03:01:29;;;;;;;3.47;3.17;;;;;;;;;;5070602;28;20105;-71
2021/06/12 03:03:56;;;;;;;3.50;3.20;;;;;;;;;;5070048;28;20402;-71
2021/06/12 03:06:23;;;;;;;3.05;2.85;;;;;;;;;;5070700;28;20499;-71
2021/06/12 03:08:51;;;;;;;4.25;3.95;;;;;;;;;;5070277;28;20033;-71
2021/06/12 03:11:18;;;;;;;4.07;3.78;;;;;;;;;;5070245;28;20523;-71
2021/06/12 03:13:45;;;;;;;3.45;3.08;;;;;;;;;;5070204;28;20059;-71
2021/06/12 03:16:11;;;;;;;3.65;3.33;;;;;;;;;;5069726;28;20503;-71
2021/06/12 03:18:38;;;;;;;3.95;3.30;;;;;;;;;;5070115;28;20139;-71
2021/06/12 03:21:05;;;;;;;4.22;3.92;;;;;;;;;;5069626;28;20041;-71
2021/06/12 03:23:32;;;;;;;3.63;3.33;;;;;;;;;;5069999;28;20044;-71
2021/06/12 03:25:59;;;;;;;4.05;3.30;;;;;;;;;;5069730;28;20080;-71
2021/06/12 03:28:26;;;;;;;3.88;3.47;;;;;;;;;;5069981;28;20055;-71
2021/06/12 03:30:52;;;;;;;5.35;3.63;;;;;;;;;;5069592;28;20057;-71
2021/06/12 03:33:18;;;;;;;4.03;3.72;;;;;;;;;;5069596;28;20102;-71
2021/06/12 03:35:45;;;;;;;4.15;3.75;;;;;;;;;;5070150;28;20510;-71
2021/06/12 03:38:12;;;;;;;4.03;3.70;;;;;;;;;;5069168;28;20091;-71
2021/06/12 03:40:38;;;;;;;3.83;3.53;;;;;;;;;;5069901;28;20075;-71
2021/06/12 03:43:05;;;;;;;3.90;3.60;;;;;;;;;;5069114;28;20556;-71
2021/06/12 03:45:32;;;;;;;4.13;3.83;;;;;;;;;;5069851;28;20052;-71
2021/06/12 03:48:02;;;;;;;3.63;3.42;;;;;;;;;;5069006;28;20048;-71
2021/06/12 03:50:28;;;;;;;3.90;3.60;;;;;;;;;;5069854;28;20473;-71
2021/06/12 03:52:55;;;;;;;4.18;3.75;;;;;;;;;;5068504;28;20098;-71
2021/06/12 03:55:21;;;;;;;4.65;3.30;;;;;;;;;;5069435;28;20086;-71
2021/06/12 03:57:48;;;;;;;3.92;3.63;;;;;;;;;;5069514;28;20052;-71
2021/06/12 04:00:14;;;;;;;4.38;4.05;;;;;;;;;;5069207;28;20060;-71
2021/06/12 04:02:40;;;;;;;4.38;3.78;;;;;;;;;;5068731;28;20136;-71
2021/06/12 04:05:07;;;;;;;3.78;3.47;;;;;;;;;;5068750;28;20337;-71
2021/06/12 04:07:33;;;;;;;3.65;3.35;;;;;;;;;;5069598;28;20049;-71
2021/06/12 04:09:59;;;;;;;3.25;3.05;;;;;;;;;;5068597;28;20090;-71
2021/06/12 04:12:25;;;;;;;4.30;3.50;;;;;;;;;;5069299;28;20102;-71
2021/06/12 04:14:51;;;;;;;6.63;3.60;;;;;;;;;;5068997;28;20060;-71
2021/06/12 04:17:17;;;;;;;4.35;3.95;;;;;;;;;;5069395;28;20044;-71
2021/06/12 04:19:43;;;;;;;4.32;3.90;;;;;;;;;;5069320;28;20396;-71
2021/06/12 04:22:10;;;;;;;4.65;4.00;;;;;;;;;;5069049;28;20056;-71
2021/06/12 04:24:36;;;;;;;3.40;3.17;;;;;;;;;;5069461;28;20098;-71
2021/06/12 04:27:02;;;;;;;3.78;3.47;;;;;;;;;;5068733;28;20410;-71
2021/06/12 04:29:29;;;;;;;5.22;4.82;;;;;;;;;;5069423;28;20053;-71
2021/06/12 04:31:55;;;;;;;5.68;4.13;;;;;;;;;;5068530;28;20506;-71
2021/06/12 04:34:22;;;;;;;4.82;4.35;;;;;;;;;;5068909;28;20047;-71
2021/06/12 04:36:48;;;;;;;6.78;3.83;;;;;;;;;;5069249;28;20459;-71
2021/06/12 04:39:14;;;;;;;3.95;3.40;;;;;;;;;;5068855;28;20109;-71
2021/06/12 04:41:40;;;;;;;3.85;3.55;;;;;;;;;;5069493;28;20051;-71
2021/06/12 04:44:07;;;;;;;3.47;3.28;;;;;;;;;;5068398;28;20098;-71
2021/06/12 04:46:33;;;;;;;4.05;3.75;;;;;;;;;;5069480;28;20044;-71
2021/06/12 04:48:59;;;;;;;4.95;4.10;;;;;;;;;;5068462;28;20418;-72
2021/06/12 04:51:25;;;;;;;3.90;3.47;;;;;;;;;;5069292;28;20084;-71
2021/06/12 04:53:51;;;;;;;4.63;4.15;;;;;;;;;;5068102;28;20506;-71
2021/06/12 04:56:17;;;;;;;4.75;4.35;;;;;;;;;;5068691;28;20098;-71
2021/06/12 04:58:43;;;;;;;3.63;3.33;;;;;;;;;;5069156;28;20052;-71
2021/06/12 05:01:09;;;;;;;4.82;4.43;;;;;;;;;;5068374;28;20485;-71
2021/06/12 05:03:36;;;;;;;4.70;3.88;;;;;;;;;;5068554;28;20048;-71
2021/06/12 05:06:03;;;;;;;4.93;4.53;;;;;;;;;;5071855;28;20052;-71
2021/06/12 05:08:29;;;;;;;5.20;4.50;;;;;;;;;;5072927;28;20049;-71
2021/06/12 05:10:55;;;;;;;4.05;3.75;;;;;;;;;;5072645;28;20051;-71
2021/06/12 05:13:21;;;;;;;4.82;4.28;;;;;;;;;;5072266;28;20055;-71
2021/06/12 05:15:47;;;;;;;4.60;4.30;;;;;;;;;;5072675;28;20067;-71
2021/06/12 05:18:15;;;;;;;4.20;3.90;;;;;;;;;;5072092;28;20056;-71
2021/06/12 05:20:41;;;;;;;4.78;4.35;;;;;;;;;;5072724;28;20052;-71
2021/06/12 05:23:07;;;;;;;4.57;4.20;;;;;;;;;;5071299;28;20143;-71
2021/06/12 05:25:34;;;;;;;4.30;3.95;;;;;;;;;;5072726;28;20058;-71
2021/06/12 05:28:00;;;;;;;3.70;3.45;;;;;;;;;;5071526;28;20060;-71
2021/06/12 05:30:26;;;;;;;4.25;3.85;;;;;;;;;;5072213;28;20092;-71
2021/06/12 05:32:53;;;;;;;3.25;3.05;;;;;;;;;;5071525;28;20078;-71
2021/06/12 05:35:19;;;;;;;4.70;4.40;;;;;;;;;;5071969;28;20528;-71
2021/06/12 05:37:45;;;;;;;3.80;3.50;;;;;;;;;;5072447;28;20090;-71
2021/06/12 05:40:12;;;;;;;5.13;4.70;;;;;;;;;;5071866;28;20052;-71
2021/06/12 05:42:38;;;;;;;4.07;3.67;;;;;;;;;;5071985;28;20049;-71
2021/06/12 05:45:05;;;;;;;4.75;4.30;;;;;;;;;;5071766;28;20040;-71
2021/06/12 05:47:32;;;;;;;4.40;4.00;;;;;;;;;;5071893;28;20044;-71
2021/06/12 05:49:58;;;;;;;4.13;3.85;;;;;;;;;;5071501;28;20045;-71
2021/06/12 05:52:24;;;;;;;3.55;3.25;;;;;;;;;;5071988;28;20060;-71
2021/06/12 05:54:50;;;;;;;4.10;3.65;;;;;;;;;;5053866;28;20040;-71
2021/06/12 05:57:16;;;;;;;5.28;4.88;;;;;;;;;;5071583;28;20061;-71
2021/06/12 05:59:42;;;;;;;4.22;3.83;;;;;;;;;;5071673;28;20048;-71
2021/06/12 06:02:08;;;;;;;4.45;4.15;;;;;;;;;;5070779;28;20139;-71
2021/06/12 06:04:34;;;;;;;4.32;4.00;;;;;;;;;;5071523;28;20483;-71
2021/06/12 06:07:00;;;;;;;5.25;4.85;;;;;;;;;;5071070;28;20048;-71
2021/06/12 06:09:26;;;;;;;5.05;4.45;;;;;;;;;;5071483;28;20041;-71
2021/06/12 06:11:52;;;;;;;3.90;3.60;;;;;;;;;;5071144;28;20044;-71
2021/06/12 06:14:18;;;;;;;4.50;4.20;;;;;;;;;;5071303;28;20048;-71
2021/06/12 06:16:45;;;;;;;5.00;4.55;;;;;;;;;;5071518;28;20044;-71
2021/06/12 06:19:11;;;;;;;4.35;3.95;;;;;;;;;;5070682;28;20044;-71
2021/06/12 06:21:37;;;;;;;4.25;3.90;;;;;;;;;;5071646;28;20506;-71
2021/06/12 06:24:04;;;;;;;4.75;4.35;;;;;;;;;;5070512;28;20053;-71
2021/06/12 06:26:30;;;;;;;4.47;4.18;;;;;;;;;;5071469;28;20062;-71
2021/06/12 06:28:56;;;;;;;5.55;5.05;;;;;;;;;;5070646;28;20053;-71
2021/06/12 06:31:23;;;;;;;4.00;3.67;;;;;;;;;;5071127;28;20105;-71
2021/06/12 06:33:49;;;;;;;5.05;4.45;;;;;;;;;;5070769;28;20045;-71
2021/06/12 06:36:15;;;;;;;4.43;4.13;;;;;;;;;;5070565;28;20036;-71
2021/06/12 06:38:41;;;;;;;3.75;3.45;;;;;;;;;;5071047;28;20048;-71
2021/06/12 06:41:08;;;;;;;4.60;4.20;;;;;;;;;;5070683;28;20135;-71
2021/06/12 06:43:34;;;;;;;4.68;4.28;;;;;;;;;;5070580;28;20217;-71
2021/06/12 06:46:00;;;;;;;4.90;4.50;;;;;;;;;;5070868;28;20137;-71
2021/06/12 06:48:26;;;;;;;4.30;3.95;;;;;;;;;;5071102;28;20068;-71
2021/06/12 06:50:52;;;;;;;3.95;3.65;;;;;;;;;;5070367;28;20060;-71
2021/06/12 06:53:18;;;;;;;5.00;3.90;;;;;;;;;;5070301;28;20465;-71
2021/06/12 06:55:44;;;;;;;4.50;4.10;;;;;;;;;;5070934;28;20506;-71
2021/06/12 06:58:11;;;;;;;4.38;4.03;;;;;;;;;;5070053;28;20045;-71
2021/06/12 07:00:37;;;;;;;3.63;3.33;;;;;;;;;;5070625;28;20135;-71
2021/06/12 07:03:03;;;;;;;4.85;4.45;;;;;;;;;;5069512;28;20044;-71
2021/06/12 07:05:29;;;;;;;4.45;4.15;;;;;;;;;;5070640;28;20072;-71
2021/06/12 07:07:55;;;;;;;4.03;3.63;;;;;;;;;;5069876;28;20052;-71
2021/06/12 07:10:21;;;;;;;3.88;3.67;;;;;;;;;;5070526;28;20130;-71
2021/06/12 07:12:48;;;;;;;4.20;3.80;;;;;;;;;;5070157;28;20136;-71
2021/06/12 07:15:14;;;;;;;4.55;4.18;;;;;;;;;;5070064;28;20044;-71
2021/06/12 07:17:40;;;;;;;4.65;4.25;;;;;;;;;;5070274;28;20058;-71
2021/06/12 07:20:07;;;;;;;4.75;4.35;;;;;;;;;;5069725;28;20099;-71
2021/06/12 07:22:33;;;;;;;3.50;3.20;;;;;;;;;;5069833;28;20594;-71
2021/06/12 07:24:59;;;;;;;4.60;4.20;;;;;;;;;;5069544;28;20044;-71
2021/06/12 07:27:25;;;;;;;4.72;4.32;;;;;;;;;;5069647;28;20506;-71
2021/06/12 07:29:52;;;;;;;4.15;3.83;;;;;;;;;;5069754;28;20059;-71
2021/06/12 07:32:18;;;;;;;3.80;3.50;;;;;;;;;;5069545;28;20064;-71
2021/06/12 07:34:44;;;;;;;4.10;3.75;;;;;;;;;;5069420;28;20056;-71
2021/06/12 07:37:10;;;;;;;3.20;3.00;;;;;;;;;;5069256;28;20197;-71
2021/06/12 07:39:36;;;;;;;4.22;3.92;;;;;;;;;;5069858;28;20558;-71
2021/06/12 07:42:02;;;;;;;3.88;3.58;;;;;;;;;;5069356;28;20055;-71
2021/06/12 07:44:28;;;;;;;4.18;3.88;;;;;;;;;;5069643;28;20051;-71
2021/06/12 07:46:54;;;;;;;3.70;3.40;;;;;;;;;;5069339;28;20052;-71
2021/06/12 07:49:21;;;;;;;4.72;4.32;;;;;;;;;;5069554;28;20053;-71
2021/06/12 07:51:47;;;;;;;3.75;3.55;;;;;;;;;;5069908;28;20497;-71
2021/06/12 07:54:13;;;;;;;4.35;4.05;;;;;;;;;;5068796;28;20063;-71
2021/06/12 07:56:39;;;;;;;5.20;4.47;;;;;;;;;;5069333;28;20072;-71
2021/06/12 07:59:05;;;;;;;3.33;3.13;;;;;;;;;;5069249;28;20575;-71
2021/06/12 08:01:33;;;;;;;3.10;2.90;;;;;;;;;;5068234;28;20056;-71
2021/06/12 08:03:59;;;;;;;4.88;4.40;;;;;;;;;;5068297;28;20048;-71
2021/06/12 08:06:25;;;;;;;3.38;3.13;;;;;;;;;;5069388;28;20057;-71
2021/06/12 08:08:51;;;;;;;4.50;4.20;;;;;;;;;;5068883;28;20045;-71
2021/06/12 08:11:17;;;;;;;4.57;4.28;;;;;;;;;;5069072;28;20067;-71
2021/06/12 08:13:43;;;;;;;4.20;3.90;;;;;;;;;;5068682;28;20048;-71
2021/06/12 08:16:09;;;;;;;4.38;4.00;;;;;;;;;;5067964;28;20056;-71
2021/06/12 08:18:35;;;;;;;3.83;3.55;;;;;;;;;;5069209;28;20503;-71
2021/06/12 08:21:02;;;;;;;5.20;4.70;;;;;;;;;;5068562;28;20056;-71
2021/06/12 08:23:28;;;;;;;4.90;4.43;;;;;;;;;;5068630;28;20507;-71
2021/06/12 08:25:54;;;;;;;4.53;3.97;;;;;;;;;;5068650;28;20052;-71
2021/06/12 08:28:20;;;;;;;4.22;3.92;;;;;;;;;;5068827;28;20193;-71
2021/06/12 08:30:47;;;;;;;3.50;3.20;;;;;;;;;;5068872;28;20056;-71
2021/06/12 08:33:13;;;;;;;4.63;4.03;;;;;;;;;;5068107;28;20056;-71
2021/06/12 08:35:39;;;;;;;4.00;3.70;;;;;;;;;;5068986;28;20372;-71
2021/06/12 08:38:06;;;;;;;4.35;4.05;;;;;;;;;;5068088;28;20109;-71
2021/06/12 08:40:32;;;;;;;3.70;3.40;;;;;;;;;;5071859;28;20053;-71
2021/06/12 08:42:58;;;;;;;4.15;3.80;;;;;;;;;;5072255;28;20044;-71
2021/06/12 08:45:28;;;;;;;3.70;3.40;;;;;;;;;;5073403;28;20566;-71
2021/06/12 08:47:54;;;;;;;3.75;3.45;;;;;;;;;;5072759;28;20044;-71
2021/06/12 08:50:23;;;;;;;4.70;4.30;;;;;;;;;;5073079;28;20495;-71
2021/06/12 08:52:49;;;;;;;4.18;3.75;;;;;;;;;;5072555;28;20053;-71
2021/06/12 08:55:15;;;;;;;4.72;4.32;;;;;;;;;;5072703;28;20109;-71
2021/06/12 08:57:41;;;;;;;4.07;3.78;;;;;;;;;;5072830;28;20056;-71
2021/06/12 09:00:09;;;;;;;4.88;4.47;;;;;;;;;;5072201;28;20063;-71
2021/06/12 09:02:55;;;;;;;4.32;4.03;;;;;;;;;;5072325;28;20056;-71
2021/06/12 09:05:24;;;;;;;4.20;3.80;;;;;;;;;;5071753;28;20072;-71
2021/06/12 09:08:05;;;;;;;5.25;4.75;;;;;;;;;;5072762;28;20427;-72
2021/06/12 09:10:31;;;;;;;4.10;3.80;;;;;;;;;;5071106;28;20127;-71
2021/06/12 09:12:57;;;;;;;5.57;3.70;;;;;;;;;;5071944;28;20413;-71
2021/06/12 09:15:23;;;;;;;4.97;4.57;;;;;;;;;;5072497;28;20045;-71
2021/06/12 09:17:51;;;;;;;5.63;4.93;;;;;;;;;;5072483;28;20113;-71
2021/06/12 09:20:18;;;;;;;4.65;4.25;;;;;;;;;;5070456;28;20052;-71
2021/06/12 09:22:44;;;;;;;4.85;4.53;;;;;;;;;;5072314;28;20045;-71
2021/06/12 09:25:11;;;;;;;4.35;4.05;;;;;;;;;;5072136;28;20109;-71
2021/06/12 09:27:37;;;;;;;4.72;4.43;;;;;;;;;;5072737;28;20045;-71
2021/06/12 09:30:08;;;;;;;4.03;3.70;;;;;;;;;;5071981;28;20066;-71
2021/06/12 09:32:44;;;;;;;5.28;4.88;;;;;;;;;;5070295;28;20406;-71
2021/06/12 09:35:11;;;;;;;5.80;5.20;;;;;;;;;;5070774;28;20515;-71
2021/06/12 09:37:37;;;;;;;6.10;5.55;;;;;;;;;;5072344;28;20429;-71
2021/06/12 09:40:06;;;;;;;5.20;4.70;;;;;;;;;;5071661;28;20056;-71
2021/06/12 09:42:46;;;;;;;6.32;4.55;;;;;;;;;;5072093;28;20132;-71
2021/06/12 09:45:14;;;;;;;4.95;4.55;;;;;;;;;;5070616;28;20045;-71
2021/06/12 09:47:41;;;;;;;5.22;4.72;;;;;;;;;;5072399;28;20445;-71
2021/06/12 09:50:08;;;;;;;4.65;4.25;;;;;;;;;;5071039;28;20572;-71
2021/06/12 09:52:42;;;;;;;6.10;5.55;;;;;;;;;;5071905;28;20048;-71
2021/06/12 09:55:09;;;;;;;5.07;4.68;;;;;;;;;;5050166;28;20515;-71
2021/06/12 09:57:45;;;;;;;5.05;4.63;;;;;;;;;;5052024;28;20068;-71
2021/06/12 10:00:12;;;;;;;4.53;4.22;;;;;;;;;;5051331;28;20052;-71
2021/06/12 10:02:44;;;;;;;5.10;4.75;;;;;;;;;;5051664;28;20098;-71
2021/06/12 10:05:12;;;;;;;4.53;4.22;;;;;;;;;;5051456;28;20056;-71
2021/06/12 10:07:39;;;;;;;4.78;4.38;;;;;;;;;;5052037;28;20045;-71
2021/06/12 10:10:06;;;;;;;5.07;4.68;;;;;;;;;;5051145;28;20045;-71
2021/06/12 10:12:33;;;;;;;4.45;4.13;;;;;;;;;;5051573;28;20095;-71
2021/06/12 10:15:00;;;;;;;4.07;3.78;;;;;;;;;;5051160;28;20057;-71
2021/06/12 10:17:27;;;;;;;4.60;4.20;;;;;;;;;;5051739;28;20049;-71
2021/06/12 10:19:54;;;;;;;3.75;3.45;;;;;;;;;;5051163;28;20132;-71
2021/06/12 10:22:21;;;;;;;3.58;3.28;;;;;;;;;;5051356;28;20045;-71
2021/06/12 10:24:48;;;;;;;4.97;3.70;;;;;;;;;;5051598;28;20138;-71
2021/06/12 10:27:14;;;;;;;3.67;3.38;;;;;;;;;;5050951;28;20194;-71
2021/06/12 10:29:42;;;;;;;4.03;3.63;;;;;;;;;;5051031;28;20136;-71
2021/06/12 10:32:09;;;;;;;3.53;3.22;;;;;;;;;;5049862;28;20534;-71
2021/06/12 10:34:35;;;;;;;3.88;3.58;;;;;;;;;;5051013;28;20396;-71
2021/06/12 10:37:03;;;;;;;4.38;4.07;;;;;;;;;;5050361;28;20217;-71
2021/06/12 10:39:33;;;;;;;4.22;3.92;;;;;;;;;;5051154;28;20124;-71
2021/06/12 10:42:25;;;;;;;4.22;3.92;;;;;;;;;;5050298;28;20049;-71
2021/06/12 10:44:52;;;;;;;4.28;3.97;;;;;;;;;;5050740;28;20048;-71
2021/06/12 10:47:38;;;;;;;3.63;3.33;;;;;;;;;;5050645;28;20057;-71
2021/06/12 10:50:24;;;;;;;3.90;3.60;;;;;;;;;;5050375;28;20131;-71
2021/06/12 10:52:52;;;;;;;4.57;4.18;;;;;;;;;;5051583;28;20053;-71
2021/06/12 10:55:38;;;;;;;3.40;3.20;;;;;;;;;;5070622;28;20044;-71
2021/06/12 10:58:24;;;;;;;4.72;4.15;;;;;;;;;;5069069;28;20053;-71
2021/06/12 11:01:08;;;;;;;4.10;3.80;;;;;;;;;;5069007;28;20052;-71
2021/06/12 11:04:06;;;;;;;4.45;4.15;;;;;;;;;;5068352;28;20048;-71
2021/06/12 11:06:47;;;;;;;4.75;4.25;;;;;;;;;;5069146;28;20041;-71
2021/06/12 11:09:34;;;;;;;4.15;3.92;;;;;;;;;;5069855;28;20150;-71
2021/06/12 11:12:02;;;;;;;3.97;3.67;;;;;;;;;;5055145;28;20119;-71
2021/06/12 11:14:33;;;;;;;4.35;3.88;;;;;;;;;;5069946;28;20135;-71
2021/06/12 11:17:15;;;;;;;5.00;4.25;;;;;;;;;;5069658;28;20054;-71
2021/06/12 11:19:45;;;;;;;4.35;4.05;;;;;;;;;;5069379;28;20051;-71
2021/06/12 11:22:30;;;;;;;3.95;3.65;;;;;;;;;;5069617;28;20574;-71
2021/06/12 11:25:01;;;;;;;4.68;4.35;;;;;;;;;;5068668;28;20048;-71
2021/06/12 11:27:31;;;;;;;3.90;3.65;;;;;;;;;;5070162;28;20419;-71
2021/06/12 11:30:12;;;;;;;4.13;3.72;;;;;;;;;;5069403;28;20526;-71
2021/06/12 11:32:39;;;;;;;3.72;3.42;;;;;;;;;;5068186;28;20519;-71
2021/06/12 11:35:06;;;;;;;4.88;4.38;;;;;;;;;;5068883;28;20091;-71
2021/06/12 11:37:32;;;;;;;4.20;3.80;;;;;;;;;;5070057;28;20099;-71
2021/06/12 11:40:01;;;;;;;3.88;3.60;;;;;;;;;;5068996;28;20052;-71
2021/06/12 11:42:42;;;;;;;4.80;4.40;;;;;;;;;;5069504;28;20049;-71
2021/06/12 11:45:25;;;;;;;4.13;3.83;;;;;;;;;;5067818;28;20133;-70
2021/06/12 11:47:52;;;;;;;4.47;4.07;;;;;;;;;;5067760;28;20379;-71
2021/06/12 11:50:29;;;;;;;3.88;3.58;;;;;;;;;;5069387;28;20048;-70
2021/06/12 11:52:55;;;;;;;4.50;4.15;;;;;;;;;;5067374;28;20603;-70
2021/06/12 11:55:23;;;;;;;3.55;3.25;;;;;;;;;;5069446;28;20079;-70
2021/06/12 11:57:51;;;;;;;4.53;4.20;;;;;;;;;;5069264;28;20044;-71
2021/06/12 12:00:30;;;;;;;4.15;3.80;;;;;;;;;;5069230;28;20613;-71
2021/06/12 12:03:01;;;;;;;3.95;3.65;;;;;;;;;;5068101;28;20059;-71
2021/06/12 12:05:31;;;;;;;5.72;5.32;;;;;;;;;;5069542;28;20049;-70
2021/06/12 12:07:57;;;;;;;4.00;3.65;;;;;;;;;;5068847;28;20052;-70
2021/06/12 12:10:27;;;;;;;4.68;4.28;;;;;;;;;;5069101;28;20051;-70
2021/06/12 12:12:53;;;;;;;4.90;4.20;;;;;;;;;;5068470;28;20507;-71
2021/06/12 12:15:36;;;;;;;3.92;3.63;;;;;;;;;;5069336;28;20041;-71
2021/06/12 12:18:06;;;;;;;4.60;3.90;;;;;;;;;;5068394;28;20079;-71
2021/06/12 12:20:36;;;;;;;3.97;3.67;;;;;;;;;;5069283;28;20083;-70
2021/06/12 12:23:03;;;;;;;3.58;3.25;;;;;;;;;;5068409;28;20532;-70
2021/06/12 12:25:30;;;;;;;3.95;3.65;;;;;;;;;;5069677;28;20048;-70
2021/06/12 12:28:08;;;;;;;3.20;2.88;;;;;;;;;;5068803;28;20044;-70
2021/06/12 12:30:38;;;;;;;4.40;4.10;;;;;;;;;;5069334;28;20120;-71
2021/06/12 12:33:19;;;;;;;4.00;3.72;;;;;;;;;;5068264;28;20049;-70
2021/06/12 12:35:45;;;;;;;3.92;3.53;;;;;;;;;;5069402;28;20055;-70
2021/06/12 12:38:22;;;;;;;4.45;4.05;;;;;;;;;;5068583;28;20175;-70
2021/06/12 12:40:49;;;;;;;4.07;3.67;;;;;;;;;;5069469;28;20048;-70
2021/06/12 12:43:17;;;;;;;4.50;4.20;;;;;;;;;;5068403;28;20051;-70
2021/06/12 12:45:45;;;;;;;4.70;4.30;;;;;;;;;;5069249;28;20040;-71
2021/06/12 12:48:13;;;;;;;3.40;3.13;;;;;;;;;;5068709;28;20051;-70
2021/06/12 12:50:40;;;;;;;4.40;4.10;;;;;;;;;;5069144;28;20051;-70
2021/06/12 12:53:08;;;;;;;4.32;4.03;;;;;;;;;;5068088;28;20036;-70
2021/06/12 12:55:34;;;;;;;4.32;4.03;;;;;;;;;;5068891;28;20048;-70
2021/06/12 12:58:01;;;;;;;5.28;4.82;;;;;;;;;;5068612;28;20426;-70
2021/06/12 13:00:29;;;;;;;3.90;3.60;;;;;;;;;;5068911;28;20063;-70
2021/06/12 13:02:57;;;;;;;4.50;4.10;;;;;;;;;;5068214;28;20055;-70
2021/06/12 13:05:23;;;;;;;3.17;2.97;;;;;;;;;;5069201;28;20472;-70
2021/06/12 13:07:57;;;;;;;3.55;3.25;;;;;;;;;;5069043;28;20044;-70
2021/06/12 13:10:28;;;;;;;3.60;3.33;;;;;;;;;;5067688;28;20408;-70
2021/06/12 13:12:55;;;;;;;3.85;3.60;;;;;;;;;;5067759;28;20142;-70
2021/06/12 13:15:22;;;;;;;3.75;3.45;;;;;;;;;;5068879;28;20530;-70
2021/06/12 13:17:48;;;;;;;4.50;4.10;;;;;;;;;;5068806;28;20061;-70
2021/06/12 13:20:19;;;;;;;4.07;3.70;;;;;;;;;;5068255;28;20080;-71
2021/06/12 13:22:46;;;;;;;3.40;3.17;;;;;;;;;;5068582;28;20062;-71
2021/06/12 13:25:18;;;;;;;3.85;3.50;;;;;;;;;;5068759;28;20072;-70
2021/06/12 13:28:07;;;;;;;5.10;4.57;;;;;;;;;;5072642;28;20055;-70
2021/06/12 13:30:38;;;;;;;3.53;3.30;;;;;;;;;;5070287;28;20114;-70
2021/06/12 13:33:11;;;;;;;3.25;3.03;;;;;;;;;;5069157;28;20055;-70
2021/06/12 13:35:45;;;;;;;3.92;3.42;;;;;;;;;;5070685;28;20559;-70
2021/06/12 13:38:11;;;;;;;;;;;;;;;;;;5071046;28;20371;-70
2021/06/12 13:40:39;;;;;;;4.43;4.03;;;;;;;;;;5072265;28;20272;-70
2021/06/12 13:43:16;;;;;;;3.53;3.33;;;;;;;;;;5068978;28;20055;-70
2021/06/12 13:45:42;;;;;;;4.03;3.72;;;;;;;;;;5071067;28;20052;-70
2021/06/12 13:48:09;;;;;;;4.68;4.28;;;;;;;;;;5071920;28;20060;-70
2021/06/12 13:50:35;;;;;;;4.03;3.67;;;;;;;;;;5071993;28;20495;-70
2021/06/12 13:53:01;;;;;;;3.28;3.08;;;;;;;;;;5070654;28;20049;-70
2021/06/12 13:55:27;;;;;;;4.00;3.70;;;;;;;;;;5072062;28;20052;-70
2021/06/12 13:57:54;;;;;;;3.90;3.50;;;;;;;;;;5071394;28;20080;-70
2021/06/12 14:00:20;;;;;;;4.07;3.75;;;;;;;;;;5071450;28;20133;-70
2021/06/12 14:02:46;;;;;;;5.90;4.65;;;;;;;;;;5070883;28;20048;-70
2021/06/12 14:05:12;;;;;;;3.83;3.53;;;;;;;;;;5071102;28;20143;-70
2021/06/12 14:07:41;;;;;;;3.75;3.50;;;;;;;;;;5071644;28;20054;-70
2021/06/12 14:10:09;;;;;;;3.38;3.10;;;;;;;;;;5070916;28;20189;-70
2021/06/12 14:12:35;;;;;;;3.40;3.20;;;;;;;;;;5071419;28;20495;-70
2021/06/12 14:15:02;;;;;;;4.00;3.70;;;;;;;;;;5071079;28;20082;-70
2021/06/12 14:17:28;;;;;;;3.65;3.35;;;;;;;;;;5071864;28;20500;-70
2021/06/12 14:19:54;;;;;;;3.40;3.10;;;;;;;;;;5071171;28;20057;-70
2021/06/12 14:22:20;;;;;;;3.53;3.22;;;;;;;;;;5071502;28;20494;-70
2021/06/12 14:24:46;;;;;;;4.43;4.13;;;;;;;;;;5071658;28;20041;-70
2021/06/12 14:27:12;;;;;;;4.32;3.00;;;;;;;;;;5070868;28;20048;-70
2021/06/12 14:29:39;;;;;;;3.22;3.03;;;;;;;;;;5071440;28;20048;-70
2021/06/12 14:32:05;;;;;;;3.67;3.40;;;;;;;;;;5070287;28;20098;-70
2021/06/12 14:34:31;;;;;;;4.38;4.00;;;;;;;;;;5071337;28;20114;-70
2021/06/12 14:36:58;;;;;;;4.13;3.83;;;;;;;;;;5070712;28;20055;-70
2021/06/12 14:39:24;;;;;;;4.60;4.13;;;;;;;;;;5070971;28;20052;-70
2021/06/12 14:41:52;;;;;;;4.60;4.20;;;;;;;;;;5070767;28;20110;-70
2021/06/12 14:44:18;;;;;;;3.95;3.65;;;;;;;;;;5070786;28;20041;-70
2021/06/12 14:46:45;;;;;;;3.20;3.00;;;;;;;;;;5071113;28;20387;-70
2021/06/12 14:49:11;;;;;;;4.53;4.13;;;;;;;;;;5070701;28;20730;-70